createdAt,value
2023-11-20T00:00:17.943Z,13.07
2023-11-20T00:02:45.386Z,16.73
2023-11-20T00:05:13.051Z,10.32
2023-11-20T00:07:40.642Z,12.25
2023-11-20T00:10:08.255Z,14.60
2023-11-20T00:12:35.602Z,15.45
2023-11-20T00:15:02.901Z,16.23
2023-11-20T00:17:30.016Z,15.13
2023-11-20T00:19:57.242Z,13.07
2023-11-20T00:22:24.395Z,16.17
2023-11-20T00:24:52.347Z,23.75
2023-11-20T00:27:19.766Z,15.93
2023-11-20T00:29:46.902Z,16.75
2023-11-20T00:32:14.239Z,19.10
2023-11-20T00:34:41.368Z,20.70
2023-11-20T00:37:08.580Z,11.68
2023-11-20T00:39:35.758Z,8.73
2023-11-20T00:42:02.864Z,13.32
2023-11-20T00:44:29.929Z,15.35
2023-11-20T00:46:57.087Z,10.30
2023-11-20T00:49:24.226Z,11.10
2023-11-20T00:51:51.401Z,9.68
2023-11-20T00:54:18.494Z,10.82
2023-11-20T00:56:45.611Z,15.93
2023-11-20T00:59:12.707Z,10.80
2023-11-20T01:01:39.966Z,15.48
2023-11-20T01:04:07.314Z,7.80
2023-11-20T01:06:39.707Z,7.63
2023-11-20T01:09:07.886Z,12.93
2023-11-20T01:11:35.450Z,16.10
2023-11-20T01:14:02.905Z,7.50
2023-11-20T01:16:30.104Z,7.28
2023-11-20T01:18:57.282Z,11.98
2023-11-20T01:21:24.413Z,8.70
2023-11-20T01:23:51.510Z,6.53
2023-11-20T01:26:18.599Z,8.25
2023-11-20T01:28:45.662Z,6.85
2023-11-20T01:31:12.873Z,7.45
2023-11-20T01:33:40.522Z,10.70
2023-11-20T01:36:07.801Z,6.75
2023-11-20T01:38:34.865Z,9.20
2023-11-20T01:41:01.951Z,6.40
2023-11-20T01:43:29.109Z,8.00
2023-11-20T01:46:01.414Z,9.70
2023-11-20T01:48:28.834Z,8.90
2023-11-20T01:50:56.379Z,7.18
2023-11-20T01:53:24.129Z,4.38
2023-11-20T01:55:51.298Z,4.15
2023-11-20T01:58:18.455Z,5.30
2023-11-20T02:00:46.972Z,6.22
2023-11-20T02:03:14.467Z,7.68
2023-11-20T02:05:41.623Z,9.63
2023-11-20T02:08:08.770Z,12.55
2023-11-20T02:10:35.916Z,10.57
2023-11-20T02:13:04.600Z,7.95
2023-11-20T02:15:32.022Z,10.05
2023-11-20T02:17:59.196Z,10.88
2023-11-20T02:20:26.663Z,11.13
2023-11-20T02:22:53.768Z,10.95
2023-11-20T02:25:20.995Z,7.93
2023-11-20T02:28:14.601Z,5.60
2023-11-20T02:30:41.739Z,7.75
2023-11-20T02:33:08.967Z,5.80
2023-11-20T02:35:36.094Z,6.78
2023-11-20T02:38:04.027Z,6.43
2023-11-20T02:40:31.127Z,7.80
2023-11-20T02:42:58.924Z,9.27
2023-11-20T02:45:26.100Z,5.68
2023-11-20T02:47:53.789Z,6.28
2023-11-20T02:50:20.909Z,5.78
2023-11-20T02:52:48.040Z,8.45
2023-11-20T02:55:15.849Z,6.00
2023-11-20T02:57:43.029Z,9.10
2023-11-20T03:00:13.201Z,6.55
2023-11-20T03:02:40.501Z,5.25
2023-11-20T03:05:09.104Z,6.00
2023-11-20T03:07:36.435Z,6.30
2023-11-20T03:10:05.111Z,9.43
2023-11-20T03:12:32.273Z,5.13
2023-11-20T03:15:00.327Z,2.55
2023-11-20T03:17:27.790Z,3.50
2023-11-20T03:19:55.031Z,6.38
2023-11-20T03:22:22.101Z,3.65
2023-11-20T03:24:49.653Z,3.90
2023-11-20T03:27:16.798Z,5.80
2023-11-20T03:29:44.742Z,2.55
2023-11-20T03:32:11.829Z,5.55
2023-11-20T03:34:38.887Z,4.40
2023-11-20T03:37:06.273Z,5.50
2023-11-20T03:39:33.450Z,5.60
2023-11-20T03:42:00.585Z,6.18
2023-11-20T03:44:27.915Z,3.78
2023-11-20T03:46:55.124Z,3.33
2023-11-20T03:49:22.280Z,4.55
2023-11-20T03:51:50.352Z,6.30
2023-11-20T03:54:17.459Z,5.65
2023-11-20T03:56:44.526Z,3.55
2023-11-20T03:59:11.750Z,10.43
2023-11-20T04:01:38.970Z,5.25
2023-11-20T04:04:06.408Z,13.02
2023-11-20T04:06:33.645Z,14.43
2023-11-20T04:09:00.760Z,14.35
2023-11-20T04:11:27.931Z,9.98
2023-11-20T04:13:55.020Z,13.23
2023-11-20T04:16:22.109Z,14.95
2023-11-20T04:18:49.752Z,10.45
2023-11-20T04:21:17.221Z,14.60
2023-11-20T04:23:44.871Z,14.57
2023-11-20T04:26:12.115Z,10.68
2023-11-20T04:28:39.203Z,14.65
2023-11-20T04:31:06.367Z,18.83
2023-11-20T04:33:33.862Z,19.77
2023-11-20T04:36:03.738Z,19.73
2023-11-20T04:38:31.711Z,19.02
2023-11-20T04:40:58.956Z,19.55
2023-11-20T04:43:26.122Z,14.80
2023-11-20T04:45:53.262Z,14.98
2023-11-20T04:48:20.364Z,13.77
2023-11-20T04:50:47.422Z,12.30
2023-11-20T04:53:14.530Z,10.55
2023-11-20T04:55:41.696Z,13.55
2023-11-20T04:58:09.981Z,5.80
2023-11-20T05:00:37.186Z,9.50
2023-11-20T05:03:04.403Z,13.35
2023-11-20T05:05:31.569Z,7.97
2023-11-20T05:07:58.692Z,11.38
2023-11-20T05:10:26.686Z,7.38
2023-11-20T05:12:54.374Z,8.32
2023-11-20T05:15:21.518Z,7.18
2023-11-20T05:17:48.674Z,11.07
2023-11-20T05:20:15.781Z,8.35
2023-11-20T05:22:42.887Z,9.70
2023-11-20T05:25:10.639Z,10.50
2023-11-20T05:27:37.914Z,9.18
2023-11-20T05:30:06.770Z,8.55
2023-11-20T05:32:33.894Z,5.78
2023-11-20T05:35:01.061Z,5.88
2023-11-20T05:37:28.181Z,7.40
2023-11-20T05:39:55.342Z,6.47
2023-11-20T05:42:22.436Z,6.28
2023-11-20T05:44:49.516Z,7.22
2023-11-20T05:47:17.977Z,4.05
2023-11-20T05:49:45.316Z,7.95
2023-11-20T05:52:12.446Z,7.93
2023-11-20T05:54:39.673Z,8.65
2023-11-20T05:57:07.143Z,5.60
2023-11-20T05:59:34.267Z,11.30
2023-11-20T06:02:01.728Z,6.53
2023-11-20T06:04:28.923Z,7.93
2023-11-20T06:06:56.432Z,5.03
2023-11-20T06:09:23.613Z,7.40
2023-11-20T06:11:50.776Z,5.78
2023-11-20T06:14:18.339Z,7.60
2023-11-20T06:16:48.407Z,5.30
2023-11-20T06:19:15.781Z,9.80
2023-11-20T06:21:46.704Z,9.05
2023-11-20T06:24:15.604Z,7.80
2023-11-20T06:26:42.906Z,4.97
2023-11-20T06:29:10.448Z,7.63
2023-11-20T06:31:37.678Z,7.43
2023-11-20T06:34:04.927Z,8.30
2023-11-20T06:36:32.052Z,5.68
2023-11-20T06:39:00.744Z,5.82
2023-11-20T06:41:29.549Z,8.00
2023-11-20T06:43:56.662Z,5.43
2023-11-20T06:46:23.830Z,12.30
2023-11-20T06:48:51.091Z,13.55
2023-11-20T06:51:18.401Z,10.77
2023-11-20T06:53:45.596Z,13.55
2023-11-20T06:56:22.431Z,8.32
2023-11-20T06:58:49.966Z,9.35
2023-11-20T07:01:18.826Z,11.80
2023-11-20T07:03:46.300Z,13.25
2023-11-20T07:06:13.939Z,12.00
2023-11-20T07:08:41.362Z,16.52
2023-11-20T07:11:08.488Z,11.48
2023-11-20T07:13:36.004Z,11.52
2023-11-20T07:16:04.250Z,14.13
2023-11-20T07:18:31.532Z,9.65
2023-11-20T07:20:58.693Z,13.07
2023-11-20T07:23:25.819Z,18.40
2023-11-20T07:25:54.508Z,13.18
2023-11-20T07:28:22.318Z,14.00
2023-11-20T07:30:49.710Z,11.52
2023-11-20T07:33:17.028Z,17.75
2023-11-20T07:35:44.371Z,16.23
2023-11-20T07:38:11.550Z,16.08
2023-11-20T07:40:38.979Z,14.98
2023-11-20T07:43:06.655Z,17.35
2023-11-20T07:45:35.501Z,10.65
2023-11-20T07:48:03.534Z,18.95
2023-11-20T07:50:30.664Z,15.32
2023-11-20T07:52:58.111Z,15.45
2023-11-20T07:55:25.292Z,22.95
2023-11-20T07:57:52.573Z,15.48
2023-11-20T08:00:19.883Z,15.55
2023-11-20T08:02:47.157Z,13.23
2023-11-20T08:05:19.721Z,11.35
2023-11-20T08:07:47.107Z,18.20
2023-11-20T08:10:14.273Z,19.67
2023-11-20T08:12:41.691Z,24.27
2023-11-20T08:15:13.579Z,16.58
2023-11-20T08:17:41.445Z,13.85
2023-11-20T08:20:09.093Z,21.77
2023-11-20T08:22:37.257Z,13.13
2023-11-20T08:25:04.854Z,13.80
2023-11-20T08:27:32.117Z,13.98
2023-11-20T08:29:59.382Z,13.63
2023-11-20T08:32:26.881Z,13.38
2023-11-20T08:34:54.335Z,9.88
2023-11-20T08:37:21.565Z,17.00
2023-11-20T08:39:49.232Z,14.65
2023-11-20T08:42:16.362Z,11.48
2023-11-20T08:44:43.623Z,11.00
2023-11-20T08:47:10.923Z,13.07
2023-11-20T08:49:38.506Z,14.55
2023-11-20T08:52:07.733Z,14.48
2023-11-20T08:54:36.236Z,18.02
2023-11-20T08:57:03.376Z,12.18
2023-11-20T08:59:32.649Z,9.85
2023-11-20T09:02:00.176Z,15.63
2023-11-20T09:04:27.833Z,12.07
2023-11-20T09:06:55.303Z,12.30
2023-11-20T09:09:22.549Z,11.88
2023-11-20T09:11:50.837Z,15.52
2023-11-20T09:14:18.088Z,15.57
2023-11-20T09:16:45.918Z,9.98
2023-11-20T09:19:13.246Z,13.73
2023-11-20T09:21:40.361Z,12.13
2023-11-20T09:24:07.552Z,11.63
2023-11-20T09:26:34.769Z,10.82
2023-11-20T09:29:02.012Z,16.35
2023-11-20T09:31:29.502Z,13.07
2023-11-20T09:33:57.340Z,8.43
2023-11-20T09:36:25.546Z,8.88
2023-11-20T09:38:52.921Z,10.85
2023-11-20T09:41:22.921Z,14.90
2023-11-20T09:43:51.622Z,14.93
2023-11-20T09:46:20.361Z,12.70
2023-11-20T09:48:49.784Z,12.45
2023-11-20T09:51:21.088Z,12.05
2023-11-20T09:53:50.627Z,11.32
2023-11-20T09:56:18.257Z,18.20
2023-11-20T09:58:46.358Z,13.30
2023-11-20T10:01:15.471Z,15.35
2023-11-20T10:03:44.892Z,17.80
2023-11-20T10:06:14.440Z,16.63
2023-11-20T10:08:42.219Z,12.98
2023-11-20T10:11:09.598Z,15.82
2023-11-20T10:13:36.702Z,12.65
2023-11-20T10:16:05.330Z,13.68
2023-11-20T10:18:32.609Z,11.73
2023-11-20T10:21:02.499Z,13.93
2023-11-20T10:23:33.674Z,15.02
2023-11-20T10:28:28.905Z,18.13
2023-11-20T10:30:56.083Z,15.82
2023-11-20T10:33:23.326Z,17.63
2023-11-20T10:35:53.973Z,12.27
2023-11-20T10:38:23.027Z,17.23
2023-11-20T10:40:50.372Z,11.15
2023-11-20T10:43:17.857Z,15.90
2023-11-20T10:45:46.017Z,14.38
2023-11-20T10:48:14.296Z,12.32
2023-11-20T10:50:42.778Z,15.70
2023-11-20T10:53:09.954Z,18.50
2023-11-20T10:55:44.644Z,17.40
2023-11-20T10:58:15.620Z,16.23
2023-11-20T11:00:43.034Z,14.90
2023-11-20T11:03:18.186Z,13.27
2023-11-20T11:05:47.162Z,18.63
2023-11-20T11:08:15.763Z,15.88
2023-11-20T11:10:44.948Z,14.18
2023-11-20T11:13:13.119Z,15.13
2023-11-20T11:15:40.504Z,13.25
2023-11-20T11:18:13.570Z,20.33
2023-11-20T11:20:47.936Z,15.73
2023-11-20T11:23:18.779Z,11.43
2023-11-20T11:25:48.029Z,19.45
2023-11-20T11:28:16.251Z,15.68
2023-11-20T11:30:45.656Z,12.20
2023-11-20T11:33:22.736Z,14.80
2023-11-20T11:35:54.200Z,14.48
2023-11-20T11:38:38.282Z,12.73
2023-11-20T11:41:11.753Z,10.40
2023-11-20T11:43:58.484Z,14.48
2023-11-20T11:46:29.218Z,11.88
2023-11-20T11:49:17.526Z,19.38
2023-11-20T11:51:45.092Z,13.90
2023-11-20T11:54:19.101Z,12.85
2023-11-20T11:56:51.939Z,13.95
2023-11-20T11:59:23.247Z,7.93
2023-11-20T12:01:50.379Z,11.18
2023-11-20T12:04:36.145Z,13.05
2023-11-20T12:07:11.518Z,13.15
2023-11-20T12:09:58.188Z,14.25
2023-11-20T12:13:07.635Z,18.50
2023-11-20T12:15:39.278Z,13.25
2023-11-20T12:18:15.239Z,16.75
2023-11-20T12:20:56.403Z,16.08
2023-11-20T12:23:36.154Z,12.85
2023-11-20T12:26:07.975Z,14.05
2023-11-20T12:31:08.748Z,14.50
2023-11-20T12:33:40.443Z,13.73
2023-11-20T12:36:10.341Z,14.60
2023-11-20T12:38:38.486Z,10.77
2023-11-20T12:41:06.472Z,7.38
2023-11-20T12:43:34.638Z,11.95
2023-11-20T12:46:02.250Z,10.00
2023-11-20T12:48:31.964Z,9.98
2023-11-20T12:50:59.082Z,12.68
2023-11-20T12:53:27.310Z,10.13
2023-11-20T12:55:57.813Z,10.82
2023-11-20T12:58:25.831Z,10.15
2023-11-20T13:00:54.642Z,9.02
2023-11-20T13:03:22.941Z,7.93
2023-11-20T13:05:54.346Z,10.57
2023-11-20T13:08:22.394Z,10.52
2023-11-20T13:10:53.803Z,12.65
2023-11-20T13:13:22.812Z,12.35
2023-11-20T13:15:51.270Z,11.65
2023-11-20T13:18:21.444Z,8.65
2023-11-20T13:20:49.289Z,6.75
2023-11-20T13:23:17.540Z,10.95
2023-11-20T13:25:46.537Z,14.90
2023-11-20T13:28:15.089Z,8.50
2023-11-20T13:30:55.482Z,8.63
2023-11-20T13:33:26.490Z,7.82
2023-11-20T13:35:54.953Z,8.52
2023-11-20T13:38:22.736Z,11.35
2023-11-20T13:40:50.261Z,9.63
2023-11-20T13:43:18.293Z,10.43
2023-11-20T13:45:47.169Z,12.90
2023-11-20T13:48:15.328Z,8.95
2023-11-20T13:50:46.586Z,10.80
2023-11-20T13:53:15.891Z,14.35
2023-11-20T13:55:49.732Z,10.65
2023-11-20T13:58:20.794Z,13.98
2023-11-20T14:00:47.627Z,9.77
2023-11-20T14:03:17.150Z,10.55
2023-11-20T14:05:45.169Z,13.30
2023-11-20T14:08:13.178Z,11.05
2023-11-20T14:10:53.695Z,9.90
2023-11-20T14:13:21.954Z,10.32
2023-11-20T14:15:48.700Z,15.38
2023-11-20T14:18:15.837Z,14.43
2023-11-20T14:20:43.794Z,13.93
2023-11-20T14:23:11.167Z,14.73
2023-11-20T14:25:38.339Z,11.10
2023-11-20T14:28:05.644Z,12.00
2023-11-20T14:30:33.255Z,13.48
2023-11-20T14:33:00.419Z,12.13
2023-11-20T14:35:27.634Z,16.30
2023-11-20T14:37:56.057Z,14.20
2023-11-20T14:40:23.884Z,14.15
2023-11-20T14:42:51.591Z,9.32
2023-11-20T14:45:19.767Z,12.20
2023-11-20T14:47:48.084Z,13.32
2023-11-20T14:50:20.322Z,11.70
2023-11-20T14:52:51.601Z,14.68
2023-11-20T14:55:19.481Z,11.90
2023-11-20T14:57:51.086Z,13.45
2023-11-20T15:00:19.288Z,14.35
2023-11-20T15:02:48.838Z,7.40
2023-11-20T15:05:16.474Z,18.38
2023-11-20T15:07:44.672Z,13.80
2023-11-20T15:10:14.337Z,13.50
2023-11-20T15:12:45.310Z,19.13
2023-11-20T15:15:13.160Z,18.15
2023-11-20T15:17:40.673Z,12.57
2023-11-20T15:20:18.248Z,11.25
2023-11-20T15:22:47.185Z,12.65
2023-11-20T15:25:14.600Z,14.25
2023-11-20T15:27:42.222Z,19.67
2023-11-20T15:30:09.603Z,11.05
2023-11-20T15:32:37.081Z,13.43
2023-11-20T15:35:06.253Z,18.50
2023-11-20T15:37:33.538Z,22.45
2023-11-20T15:40:00.863Z,16.40
2023-11-20T15:42:28.048Z,15.60
2023-11-20T15:44:55.153Z,12.68
2023-11-20T15:47:22.320Z,18.17
2023-11-20T15:49:49.655Z,15.70
2023-11-20T15:52:17.407Z,20.77
2023-11-20T15:54:44.454Z,24.02
2023-11-20T15:57:11.576Z,14.15
2023-11-20T15:59:38.755Z,14.93
2023-11-20T16:02:05.978Z,12.23
2023-11-20T16:04:33.169Z,17.50
2023-11-20T16:07:00.434Z,16.85
2023-11-20T16:09:27.658Z,13.13
2023-11-20T16:11:55.317Z,11.43
2023-11-20T16:14:22.436Z,11.85
2023-11-20T16:16:54.398Z,13.75
2023-11-20T16:19:23.016Z,12.40
2023-11-20T16:21:50.377Z,15.80
2023-11-20T16:24:17.709Z,14.30
2023-11-20T16:26:45.821Z,8.82
2023-11-20T16:29:14.659Z,7.18
2023-11-20T16:31:44.130Z,11.80
2023-11-20T16:34:11.407Z,11.73
2023-11-20T16:36:38.552Z,10.13
2023-11-20T16:39:07.311Z,6.20
2023-11-20T16:41:36.379Z,9.48
2023-11-20T16:44:03.636Z,9.20
2023-11-20T16:46:33.306Z,12.07
2023-11-20T16:49:01.282Z,10.07
2023-11-20T16:51:28.579Z,12.05
2023-11-20T16:53:57.428Z,11.27
2023-11-20T16:56:32.172Z,10.30
2023-11-20T16:58:59.376Z,11.60
2023-11-20T17:01:26.577Z,10.05
2023-11-20T17:03:55.213Z,14.27
2023-11-20T17:06:22.814Z,16.30
2023-11-20T17:08:54.431Z,14.60
2023-11-20T17:11:22.509Z,17.42
2023-11-20T17:13:49.767Z,18.85
2023-11-20T17:16:16.997Z,13.20
2023-11-20T17:18:44.129Z,13.07
2023-11-20T17:21:11.201Z,21.33
2023-11-20T17:23:38.605Z,14.02
2023-11-20T17:26:05.954Z,12.35
2023-11-20T17:28:33.091Z,17.77
2023-11-20T17:33:30.743Z,15.95
2023-11-20T17:35:58.315Z,19.58
2023-11-20T17:38:29.402Z,23.40
2023-11-20T17:40:56.538Z,22.17
2023-11-20T17:43:23.777Z,24.92
2023-11-20T17:45:51.024Z,22.70
2023-11-20T17:48:19.504Z,24.52
2023-11-20T17:50:46.907Z,21.38
2023-11-20T17:53:14.249Z,23.90
2023-11-20T17:55:41.520Z,22.33
2023-11-20T17:58:08.788Z,20.20
2023-11-20T18:00:36.154Z,22.92
2023-11-20T18:03:06.362Z,18.48
2023-11-20T18:05:38.612Z,23.52
2023-11-20T18:08:06.043Z,26.25
2023-11-20T18:10:33.218Z,22.58
2023-11-20T18:13:01.910Z,20.83
2023-11-20T18:15:29.334Z,26.05
2023-11-20T18:17:56.760Z,23.50
2023-11-20T18:20:24.939Z,24.13
2023-11-20T18:22:51.989Z,21.88
2023-11-20T18:25:19.168Z,24.45
2023-11-20T18:27:46.713Z,25.83
2023-11-20T18:30:14.157Z,22.70
2023-11-20T18:32:42.161Z,25.77
2023-11-20T18:35:09.814Z,17.50
2023-11-20T18:37:36.995Z,21.75
2023-11-20T18:40:05.327Z,26.35
2023-11-20T18:42:32.528Z,33.20
2023-11-20T18:45:00.044Z,24.17
2023-11-20T18:47:27.938Z,23.75
2023-11-20T18:49:57.539Z,26.50
2023-11-20T18:52:24.709Z,23.77
2023-11-20T18:54:51.828Z,26.90
2023-11-20T18:57:19.021Z,27.98
2023-11-20T18:59:46.211Z,27.23
2023-11-20T19:02:13.392Z,27.05
2023-11-20T19:04:41.174Z,33.58
2023-11-20T19:07:08.367Z,25.55
2023-11-20T19:09:38.145Z,37.55
2023-11-20T19:12:05.953Z,32.88
2023-11-20T19:14:33.091Z,28.40
2023-11-20T19:17:00.432Z,22.52
2023-11-20T19:19:28.800Z,34.85
2023-11-20T19:21:55.966Z,33.38
2023-11-20T19:24:24.396Z,43.60
2023-11-20T19:26:51.502Z,31.25
2023-11-20T19:29:19.068Z,31.17
2023-11-20T19:31:46.310Z,34.28
2023-11-20T19:34:14.147Z,30.42
2023-11-20T19:36:41.301Z,27.58
2023-11-20T19:39:08.752Z,25.52
2023-11-20T19:41:35.903Z,29.52
2023-11-20T19:44:03.025Z,32.03
2023-11-20T19:46:30.182Z,26.35
2023-11-20T19:48:57.396Z,31.02
2023-11-20T19:51:24.523Z,33.53
2023-11-20T19:53:54.866Z,28.75
2023-11-20T19:56:23.447Z,29.77
2023-11-20T19:58:50.951Z,27.52
2023-11-20T20:01:18.380Z,27.40
2023-11-20T20:03:45.685Z,33.85
2023-11-20T20:06:12.893Z,29.88
2023-11-20T20:08:40.196Z,33.20
2023-11-20T20:11:07.407Z,35.95
2023-11-20T20:13:34.754Z,31.98
2023-11-20T20:16:03.421Z,36.17
2023-11-20T20:18:30.610Z,26.42
2023-11-20T20:20:58.385Z,26.05
2023-11-20T20:23:30.962Z,28.05
2023-11-20T20:26:01.612Z,26.73
2023-11-20T20:28:29.501Z,28.70
2023-11-20T20:30:56.710Z,28.27
2023-11-20T20:33:23.845Z,28.95
2023-11-20T20:35:50.941Z,35.70
2023-11-20T20:38:18.598Z,25.98
2023-11-20T20:40:48.625Z,30.50
2023-11-20T20:43:16.674Z,29.25
2023-11-20T20:45:44.890Z,29.38
2023-11-20T20:48:12.148Z,33.42
2023-11-20T20:50:39.350Z,29.02
2023-11-20T20:53:11.623Z,29.23
2023-11-20T20:55:39.000Z,36.53
2023-11-20T20:58:06.362Z,32.25
2023-11-20T21:00:34.690Z,27.35
2023-11-20T21:03:02.151Z,31.48
2023-11-20T21:05:30.658Z,39.05
2023-11-20T21:07:58.420Z,33.67
2023-11-20T21:10:26.857Z,42.33
2023-11-20T21:12:54.217Z,32.63
2023-11-20T21:15:21.356Z,40.97
2023-11-20T21:17:49.294Z,33.33
2023-11-20T21:20:17.383Z,34.05
2023-11-20T21:22:45.517Z,30.60
2023-11-20T21:25:13.383Z,35.78
2023-11-20T21:27:40.549Z,29.88
2023-11-20T21:30:08.026Z,35.03
2023-11-20T21:32:35.977Z,35.65
2023-11-20T21:35:05.700Z,34.55
2023-11-20T21:37:33.534Z,33.55
2023-11-20T21:40:00.957Z,32.15
2023-11-20T21:42:28.373Z,32.05
2023-11-20T21:44:55.706Z,30.25
2023-11-20T21:47:22.890Z,29.27
2023-11-20T21:49:50.096Z,33.17
2023-11-20T21:52:18.120Z,39.83
2023-11-20T21:54:45.310Z,23.90
2023-11-20T21:57:12.523Z,29.70
2023-11-20T21:59:41.753Z,33.50
2023-11-20T22:02:08.988Z,34.47
2023-11-20T22:04:36.218Z,39.45
2023-11-20T22:07:03.356Z,33.33
2023-11-20T22:09:30.451Z,35.53
2023-11-20T22:11:58.067Z,33.47
2023-11-20T22:14:25.888Z,38.53
2023-11-20T22:16:53.903Z,39.13
2023-11-20T22:19:21.103Z,38.28
2023-11-20T22:21:48.290Z,37.10
2023-11-20T22:24:15.417Z,35.78
2023-11-20T22:26:42.550Z,37.30
2023-11-20T22:29:09.630Z,41.33
2023-11-20T22:31:36.778Z,38.97
2023-11-20T22:34:05.061Z,41.80
2023-11-20T22:36:32.328Z,35.13
2023-11-20T22:38:59.572Z,39.30
2023-11-20T22:41:26.753Z,43.72
2023-11-20T22:43:53.862Z,37.72
2023-11-20T22:46:21.240Z,43.55
2023-11-20T22:48:49.983Z,38.28
2023-11-20T22:51:17.393Z,45.33
2023-11-20T22:53:45.123Z,46.97
2023-11-20T22:56:12.456Z,37.05
2023-11-20T22:58:39.700Z,42.35
2023-11-20T23:01:10.217Z,40.65
2023-11-20T23:03:37.771Z,32.90
2023-11-20T23:06:06.782Z,44.63
2023-11-20T23:08:34.806Z,43.25
2023-11-20T23:11:01.999Z,41.63
2023-11-20T23:13:29.217Z,47.78
2023-11-20T23:15:56.796Z,48.92
2023-11-20T23:18:24.227Z,49.20
2023-11-20T23:20:51.461Z,38.95
2023-11-20T23:23:18.582Z,45.63
2023-11-20T23:25:47.530Z,48.72
2023-11-20T23:28:14.844Z,52.28
2023-11-20T23:30:42.315Z,46.63
2023-11-20T23:33:09.530Z,51.35
2023-11-20T23:35:38.755Z,43.22
2023-11-20T23:38:05.953Z,46.85
2023-11-20T23:40:33.145Z,39.22
2023-11-20T23:43:00.334Z,44.70
2023-11-20T23:45:27.469Z,42.30
2023-11-20T23:47:56.067Z,46.25
2023-11-20T23:50:23.366Z,47.20
2023-11-20T23:52:51.162Z,43.35
2023-11-20T23:55:21.853Z,54.95
2023-11-20T23:57:49.647Z,43.05
